createdAt,value
2018-10-21T00:02:21.157Z,19.77
2018-10-21T00:06:25.847Z,21.20
2018-10-21T00:10:31.098Z,22.67
2018-10-21T00:14:37.343Z,21.33
2018-10-21T00:19:13.212Z,20.83
2018-10-21T00:23:17.875Z,19.90
2018-10-21T00:27:22.627Z,22.30
2018-10-21T00:31:27.293Z,18.97
2018-10-21T00:35:32.044Z,15.90
2018-10-21T00:39:36.741Z,20.17
2018-10-21T00:43:41.473Z,21.90
2018-10-21T00:47:46.146Z,20.23
2018-10-21T00:51:50.839Z,18.10
2018-10-21T00:55:55.500Z,20.03
2018-10-21T01:00:00.448Z,18.93
2018-10-21T01:04:05.938Z,20.37
2018-10-21T01:08:10.768Z,18.43
2018-10-21T01:12:16.448Z,17.57
2018-10-21T01:16:21.687Z,19.80
2018-10-21T01:20:26.353Z,18.10
2018-10-21T01:24:31.320Z,17.77
2018-10-21T01:28:36.082Z,18.17
2018-10-21T01:32:40.849Z,17.13
2018-10-21T01:36:45.615Z,16.27
2018-10-21T01:40:52.589Z,18.80
2018-10-21T01:44:57.428Z,18.60
2018-10-21T01:49:02.391Z,20.87
2018-10-21T01:53:08.251Z,21.73
2018-10-21T01:57:14.019Z,21.07
2018-10-21T02:01:18.646Z,16.70
2018-10-21T02:05:23.441Z,20.67
2018-10-21T02:09:28.119Z,19.73
2018-10-21T02:13:34.039Z,20.00
2018-10-21T02:17:38.807Z,19.97
2018-10-21T02:21:43.510Z,30.27
2018-10-21T02:25:48.245Z,20.90
2018-10-21T02:29:52.872Z,21.93
2018-10-21T02:33:57.627Z,24.93
2018-10-21T02:38:02.798Z,22.23
2018-10-21T02:42:07.590Z,22.00
2018-10-21T02:46:12.327Z,25.27
2018-10-21T02:50:17.429Z,22.30
2018-10-21T02:54:24.239Z,21.53
2018-10-21T02:58:29.258Z,24.77
2018-10-21T03:02:34.271Z,27.63
2018-10-21T03:06:39.018Z,25.00
2018-10-21T03:10:43.770Z,23.00
2018-10-21T03:14:48.658Z,28.87
2018-10-21T03:18:53.406Z,24.23
2018-10-21T03:22:58.689Z,26.63
2018-10-21T03:27:03.836Z,25.97
2018-10-21T03:31:08.644Z,23.23
2018-10-21T03:35:13.280Z,27.93
2018-10-21T03:39:17.943Z,25.33
2018-10-21T03:43:22.624Z,28.30
2018-10-21T03:47:27.411Z,26.53
2018-10-21T03:51:32.723Z,24.97
2018-10-21T03:55:39.395Z,26.17
2018-10-21T03:59:44.227Z,25.80
2018-10-21T04:03:48.911Z,30.60
2018-10-21T04:07:53.584Z,27.57
2018-10-21T04:11:58.291Z,26.37
2018-10-21T04:16:04.894Z,27.87
2018-10-21T04:20:09.818Z,28.90
2018-10-21T04:24:14.486Z,28.17
2018-10-21T04:28:19.450Z,25.13
2018-10-21T04:32:24.189Z,26.47
2018-10-21T04:36:34.646Z,23.77
2018-10-21T04:40:39.497Z,25.93
2018-10-21T04:44:44.190Z,25.27
2018-10-21T04:48:48.880Z,27.70
2018-10-21T04:52:53.643Z,27.07
2018-10-21T04:56:58.578Z,28.70
2018-10-21T05:01:03.752Z,31.83
2018-10-21T05:05:09.623Z,29.40
2018-10-21T05:09:14.427Z,25.57
2018-10-21T05:13:19.221Z,23.30
2018-10-21T05:17:23.902Z,24.47
2018-10-21T05:21:29.190Z,21.40
2018-10-21T05:25:34.066Z,25.03
2018-10-21T05:29:39.049Z,22.17
2018-10-21T05:33:43.707Z,23.17
2018-10-21T05:37:48.956Z,22.77
2018-10-21T05:41:53.649Z,19.63
2018-10-21T05:45:58.435Z,17.73
2018-10-21T05:50:04.062Z,21.20
2018-10-21T05:54:10.076Z,29.37
2018-10-21T05:58:14.792Z,22.07
2018-10-21T06:02:19.834Z,23.97
2018-10-21T06:06:24.471Z,21.87
2018-10-21T06:10:29.552Z,24.07
2018-10-21T06:14:34.750Z,25.53
2018-10-21T06:18:39.843Z,23.83
2018-10-21T06:22:46.084Z,27.70
2018-10-21T06:26:51.004Z,26.50
2018-10-21T06:30:55.650Z,24.83
2018-10-21T06:35:01.273Z,24.27
2018-10-21T06:39:07.154Z,21.57
2018-10-21T06:43:12.113Z,22.90
2018-10-21T06:47:16.922Z,24.53
2018-10-21T06:51:21.658Z,26.63
2018-10-21T06:55:26.416Z,25.53
2018-10-21T06:59:31.624Z,25.20
2018-10-21T07:03:36.536Z,30.20
2018-10-21T07:07:41.342Z,27.73
2018-10-21T07:11:46.039Z,27.67
2018-10-21T07:15:50.752Z,26.53
2018-10-21T07:19:55.395Z,26.80
2018-10-21T07:24:01.688Z,28.40
2018-10-21T07:28:06.482Z,26.30
2018-10-21T07:32:11.378Z,31.17
2018-10-21T07:36:16.125Z,38.37
2018-10-21T07:40:20.952Z,34.53
2018-10-21T07:44:25.691Z,46.67
2018-10-21T07:48:32.110Z,34.87
2018-10-21T07:52:37.132Z,36.17
2018-10-21T07:56:41.806Z,47.77
2018-10-21T08:00:46.576Z,49.40
2018-10-21T08:04:51.224Z,40.73
2018-10-21T08:08:55.987Z,35.00
2018-10-21T08:13:00.823Z,33.43
2018-10-21T08:17:05.761Z,27.67
2018-10-21T08:21:10.532Z,26.00
2018-10-21T08:25:15.286Z,29.00
2018-10-21T08:29:19.955Z,24.60
2018-10-21T08:33:24.771Z,28.60
2018-10-21T08:37:30.049Z,30.97
2018-10-21T08:41:35.126Z,26.77
2018-10-21T08:45:39.811Z,24.20
2018-10-21T08:49:44.522Z,30.57
2018-10-21T08:53:49.151Z,29.80
2018-10-21T08:57:53.817Z,30.07
2018-10-21T09:01:58.597Z,30.73
2018-10-21T09:06:04.179Z,34.53
2018-10-21T09:10:11.922Z,32.90
2018-10-21T09:14:16.584Z,36.03
2018-10-21T09:18:21.341Z,36.03
2018-10-21T09:22:26.029Z,29.93
2018-10-21T09:26:30.795Z,30.00
2018-10-21T09:30:35.506Z,28.17
2018-10-21T09:34:40.155Z,29.23
2018-10-21T09:38:44.825Z,62.80
2018-10-21T09:42:50.074Z,46.70
2018-10-21T09:46:54.732Z,31.63
2018-10-21T09:51:00.227Z,35.60
2018-10-21T09:55:05.526Z,31.37
2018-10-21T09:59:10.193Z,30.30
2018-10-21T10:03:15.044Z,30.87
2018-10-21T10:07:19.835Z,27.13
2018-10-21T10:11:24.711Z,29.10
2018-10-21T10:15:29.550Z,30.53
2018-10-21T10:19:34.394Z,27.67
2018-10-21T10:23:39.058Z,29.20
2018-10-21T10:27:43.764Z,28.87
2018-10-21T10:31:48.444Z,30.37
2018-10-21T10:35:53.138Z,27.77
2018-10-21T10:39:57.860Z,27.63
2018-10-21T10:44:03.597Z,32.10
2018-10-21T10:48:08.484Z,42.90
2018-10-21T10:52:13.313Z,45.73
2018-10-21T10:56:17.935Z,26.83
2018-10-21T11:00:22.694Z,42.83
2018-10-21T11:04:27.416Z,69.43
2018-10-21T11:08:32.477Z,43.83
2018-10-21T11:12:37.171Z,41.13
2018-10-21T11:16:41.914Z,32.83
2018-10-21T11:20:46.707Z,50.90
2018-10-21T11:24:51.449Z,36.93
2018-10-21T11:28:56.364Z,32.10
2018-10-21T11:33:01.179Z,31.23
2018-10-21T11:37:05.977Z,31.63
2018-10-21T11:41:10.619Z,33.60
2018-10-21T11:45:15.390Z,34.07
2018-10-21T11:49:20.060Z,30.97
2018-10-21T11:53:24.727Z,33.63
2018-10-21T11:57:29.573Z,32.10
2018-10-21T12:01:34.712Z,29.83
2018-10-21T12:05:39.954Z,31.83
2018-10-21T12:09:44.665Z,26.83
2018-10-21T12:13:49.329Z,29.67
2018-10-21T12:17:54.154Z,31.70
2018-10-21T12:21:59.014Z,29.23
2018-10-21T12:26:04.339Z,31.33
2018-10-21T12:30:09.479Z,29.27
2018-10-21T12:34:14.308Z,27.97
2018-10-21T12:38:18.941Z,24.40
2018-10-21T12:42:23.592Z,26.40
2018-10-21T12:46:28.641Z,29.57
2018-10-21T12:50:34.207Z,27.50
2018-10-21T12:54:39.064Z,28.83
2018-10-21T12:58:43.690Z,30.70
2018-10-21T13:02:48.368Z,48.23
2018-10-21T13:06:53.238Z,36.00
2018-10-21T13:10:58.065Z,29.93
2018-10-21T13:15:03.192Z,30.93
2018-10-21T13:19:08.062Z,28.47
2018-10-21T13:23:12.732Z,29.10
2018-10-21T13:27:17.941Z,29.03
2018-10-21T13:31:22.599Z,28.97
2018-10-21T13:35:27.356Z,29.47
2018-10-21T13:39:32.354Z,23.53
2018-10-21T13:43:37.193Z,24.30
2018-10-21T13:47:41.858Z,27.40
2018-10-21T13:51:46.693Z,23.30
2018-10-21T13:55:51.273Z,63.10
2018-10-21T13:59:55.982Z,51.57
2018-10-21T14:04:01.122Z,37.60
2018-10-21T14:08:05.859Z,25.73
2018-10-21T14:12:11.549Z,25.73
2018-10-21T14:16:16.442Z,27.13
2018-10-21T14:20:21.023Z,25.93
2018-10-21T14:24:25.720Z,21.97
2018-10-21T14:28:30.552Z,21.17
2018-10-21T14:32:35.294Z,21.97
2018-10-21T14:36:39.991Z,22.40
2018-10-21T14:40:44.691Z,24.33
2018-10-21T14:44:49.372Z,27.37
2018-10-21T14:48:54.129Z,24.77
2018-10-21T14:52:58.879Z,24.07
2018-10-21T14:57:04.051Z,24.53
2018-10-21T15:01:08.637Z,24.50
2018-10-21T15:05:13.771Z,25.93
2018-10-21T15:09:18.515Z,22.73
2018-10-21T15:13:23.147Z,22.97
2018-10-21T15:17:27.889Z,28.37
2018-10-21T15:21:32.735Z,30.27
2018-10-21T15:25:37.734Z,25.47
2018-10-21T15:29:42.415Z,26.47
2018-10-21T15:33:47.092Z,22.17
2018-10-21T15:37:51.906Z,22.47
2018-10-21T15:41:56.552Z,25.87
2018-10-21T15:46:01.534Z,26.07
2018-10-21T15:50:06.648Z,30.77
2018-10-21T15:54:11.475Z,27.10
2018-10-21T15:58:16.330Z,29.23
2018-10-21T16:02:21.074Z,24.77
2018-10-21T16:06:25.729Z,26.53
2018-10-21T16:10:31.611Z,25.77
2018-10-21T16:14:36.520Z,26.93
2018-10-21T16:18:41.169Z,27.00
2018-10-21T16:22:46.316Z,26.40
2018-10-21T16:26:52.117Z,22.83
2018-10-21T16:30:57.101Z,23.37
2018-10-21T16:35:02.378Z,25.20
2018-10-21T16:39:09.220Z,23.03
2018-10-21T16:43:14.104Z,26.93
2018-10-21T16:47:19.046Z,22.47
2018-10-21T16:51:23.848Z,26.83
2018-10-21T16:55:28.629Z,23.13
2018-10-21T16:59:34.077Z,21.13
2018-10-21T17:03:38.803Z,22.13
2018-10-21T17:07:43.526Z,25.47
2018-10-21T17:11:48.231Z,25.43
2018-10-21T17:15:52.952Z,22.13
2018-10-21T17:19:57.629Z,24.33
2018-10-21T17:24:02.732Z,27.70
2018-10-21T17:28:07.726Z,24.80
2018-10-21T17:32:12.420Z,27.63
2018-10-21T17:36:17.141Z,27.73
2018-10-21T17:40:21.836Z,32.30
2018-10-21T17:44:26.503Z,31.17
2018-10-21T17:48:31.522Z,26.33
2018-10-21T17:52:36.809Z,28.97
2018-10-21T17:56:46.942Z,29.67
2018-10-21T18:00:51.619Z,27.80
2018-10-21T18:04:56.639Z,29.17
2018-10-21T18:09:01.422Z,32.10
2018-10-21T18:13:07.435Z,30.17
2018-10-21T18:17:12.154Z,32.63
2018-10-21T18:21:17.322Z,37.00
2018-10-21T18:25:22.128Z,32.37
2018-10-21T18:29:27.107Z,31.23
2018-10-21T18:33:32.525Z,27.07
2018-10-21T18:37:38.379Z,29.90
2018-10-21T18:41:43.132Z,32.53
2018-10-21T18:45:47.848Z,29.80
2018-10-21T18:49:52.650Z,30.20
2018-10-21T18:53:57.333Z,31.33
2018-10-21T18:58:02.282Z,30.17
2018-10-21T19:02:07.272Z,32.57
2018-10-21T19:06:12.112Z,29.87
2018-10-21T19:10:17.127Z,34.47
2018-10-21T19:14:21.754Z,34.30
2018-10-21T19:18:26.599Z,30.23
2018-10-21T19:22:31.459Z,30.23
2018-10-21T19:28:01.743Z,30.47
2018-10-21T19:32:06.801Z,35.00
2018-10-21T19:36:11.663Z,33.67
2018-10-21T19:40:16.718Z,32.37
2018-10-21T19:44:21.387Z,32.53
2018-10-21T19:48:26.102Z,33.43
2018-10-21T19:52:31.327Z,37.13
2018-10-21T19:56:36.806Z,34.47
2018-10-21T20:00:41.588Z,34.97
2018-10-21T20:04:46.334Z,35.77
2018-10-21T20:08:51.574Z,37.77
2018-10-21T20:12:56.468Z,37.47
2018-10-21T20:17:02.278Z,41.83
2018-10-21T20:21:07.406Z,37.93
2018-10-21T20:25:12.322Z,36.63
2018-10-21T20:29:17.093Z,37.83
2018-10-21T20:33:22.272Z,35.90
2018-10-21T20:37:26.949Z,38.03
2018-10-21T20:41:31.924Z,36.57
2018-10-21T20:45:38.429Z,36.53
2018-10-21T20:49:43.270Z,41.10
2018-10-21T20:53:48.402Z,42.30
2018-10-21T20:57:53.806Z,41.40
2018-10-21T21:01:58.831Z,39.03
2018-10-21T21:06:04.012Z,38.40
2018-10-21T21:10:14.110Z,36.60
2018-10-21T21:14:20.009Z,36.00
2018-10-21T21:18:26.544Z,39.63
2018-10-21T21:22:37.123Z,36.57
2018-10-21T21:26:46.175Z,41.77
2018-10-21T21:30:52.905Z,41.23
2018-10-21T21:34:58.402Z,35.23
2018-10-21T21:39:13.738Z,42.43
2018-10-21T21:43:20.320Z,40.77
2018-10-21T21:47:25.503Z,37.00
2018-10-21T21:51:30.543Z,44.23
2018-10-21T21:55:36.646Z,35.80
2018-10-21T21:59:41.611Z,37.30
2018-10-21T22:03:46.549Z,36.93
2018-10-21T22:07:51.516Z,39.90
2018-10-21T22:11:57.499Z,41.43
2018-10-21T22:16:04.455Z,40.10
2018-10-21T22:20:09.515Z,43.30
2018-10-21T22:24:14.380Z,42.07
2018-10-21T22:28:19.266Z,41.53
2018-10-21T22:32:24.521Z,44.93
2018-10-21T22:36:29.768Z,42.97
2018-10-21T22:40:34.824Z,40.70
2018-10-21T22:44:39.922Z,40.30
2018-10-21T22:48:44.676Z,40.90
2018-10-21T22:52:49.763Z,37.87
2018-10-21T22:56:55.727Z,42.63
2018-10-21T23:01:02.180Z,35.77
2018-10-21T23:05:09.056Z,36.30
2018-10-21T23:09:14.480Z,36.37
2018-10-21T23:13:19.665Z,32.83
2018-10-21T23:17:24.564Z,32.60
2018-10-21T23:21:29.419Z,34.73
2018-10-21T23:25:34.890Z,33.50
2018-10-21T23:29:40.829Z,31.20
2018-10-21T23:33:49.600Z,27.93
2018-10-21T23:37:54.543Z,28.27
2018-10-21T23:42:00.452Z,32.70
2018-10-21T23:46:07.346Z,31.90
2018-10-21T23:50:12.815Z,28.73
2018-10-21T23:54:17.864Z,28.30
2018-10-21T23:58:22.867Z,27.07
